Latest Weather Observations for Ernabella/Pukatja

IDS60801

Issued at 8:41 pm CDT Sunday 24 January 2021 (issued every 10 minutes, with the page automatically refreshed every 10 minutes)

About weather observations | Map of weather stations | Latest weather observations for SA | Other Formats
Station Details ID: 016097 Name: PUKATJA Lat: -26.26 Lon: 132.18 Height: 703.2 m
Data from the previous 72 hours. | See also: Recent months at Ernabella/Pukatja
Date/Time
CDT
Temp
°C
App
Temp
°C
Dew
Point
°C
Rel
Hum
%
Delta-T
°C
Wind Press
QNH
hPa
Press
MSL
hPa
Rain since
9am
mm
Dir  Spd
km/h
Gust
km/h
Spd
kts
Gust
kts
24/08:30pm 30.9 29.5 18.9 48 8.0 NNW 24 33 13 18 1003.9 998.4 2.0
24/08:00pm 31.5 29.6 18.5 46 8.6 NNW 26 41 14 22 1003.4 997.8 2.0
24/07:30pm 31.8 28.8 18.7 45 8.8 NNW 32 43 17 23 1002.9 997.4 2.0
24/07:00pm 32.2 29.3 18.8 45 9.0 NNW 32 52 17 28 1003.0 997.5 2.0
24/06:55pm 32.7 29.8 18.8 43 9.3 NNW 32 52 17 28 1002.9 997.4 2.0
24/06:30pm 32.9 30.9 18.3 42 9.7 NNW 26 44 14 24 1003.0 997.5 2.0
24/06:07pm 32.6 30.4 18.8 44 9.2 N 28 46 15 25 1003.0 997.5 2.0
24/06:00pm 32.7 30.2 18.1 42 9.7 N 28 43 15 23 1002.9 997.4 2.0
24/05:36pm 33.2 29.8 18.2 41 10.0 N 33 52 18 28 1003.1 997.6 2.0
24/05:30pm 33.6 30.4 18.1 39 10.3 N 32 48 17 26 1003.1 997.6 2.0
24/05:00pm 32.5 29.2 17.9 41 9.6 N 32 50 17 27 1003.4 997.8 2.0
24/04:30pm 33.6 30.4 17.3 37 10.7 N 30 48 16 26 1003.7 998.2 2.0
24/04:00pm 33.4 28.8 17.1 37 10.7 N 37 56 20 30 1004.1 998.6 2.0
24/03:30pm 33.1 29.3 17.3 39 10.4 N 33 54 18 29 1004.8 999.2 2.0
24/03:01pm 31.4 27.8 17.3 43 9.2 N 32 50 17 27 1005.3 999.8 2.0
24/03:00pm 31.6 27.9 17.5 43 9.3 N 33 50 18 27 1005.3 999.8 2.0
24/02:55pm 32.1 29.4 17.6 42 9.5 N 28 48 15 26 1005.4 999.9 2.0
24/02:30pm 31.2 27.8 18.2 46 8.6 N 33 46 18 25 1006.0 1000.5 2.0
24/02:00pm 30.1 28.3 19.5 53 7.1 N 28 46 15 25 1006.5 1001.0 2.0
24/01:53pm 29.8 28.1 19.8 55 6.7 N 28 46 15 25 1006.7 1001.2 2.0
24/01:30pm 28.7 26.7 19.9 59 5.9 N 30 44 16 24 1007.0 1001.5 2.0
24/01:00pm 27.7 26.8 19.8 62 5.3 N 24 43 13 23 1007.5 1002.1 1.8
24/12:30pm 25.8 24.2 20.1 71 3.8 NNW 28 37 15 20 1008.1 1002.6 1.8
24/12:00pm 24.0 24.3 20.5 81 2.3 N 19 32 10 17 1008.6 1003.1 1.8
24/11:30am 22.4 22.7 20.7 90 1.1 NNW 20 33 11 18 1009.4 1003.9 1.8
24/11:00am 21.9 23.2 21.6 98 0.2 N 17 28 9 15 1009.5 1004.0 1.6
24/10:30am 22.6 24.0 21.9 96 0.5 NNW 17 26 9 14 1010.1 1004.6 0.8
24/10:00am 22.2 23.4 20.7 91 1.0 N 15 20 8 11 1010.2 1004.8 0.4
24/09:30am 23.1 24.5 19.5 80 2.4 N 11 22 6 12 1010.0 1004.5 0.0
24/09:00am 22.5 22.7 19.3 82 2.1 NW 17 26 9 14 1009.8 1004.3 0.2
24/08:30am 23.2 22.5 19.4 79 2.5 NW 22 43 12 23 1009.5 1004.0 0.0
24/08:00am 23.6 22.2 18.7 74 3.2 WNW 24 35 13 19 1008.9 1003.5 0.0
24/07:30am 23.3 23.9 18.6 75 3.1 WNW 13 19 7 10 1008.4 1002.9 0.0
24/07:08am 23.4 21.9 18.5 74 3.2 WNW 24 48 13 26 1008.1 1002.6 0.0
24/07:05am 23.7 23.0 18.6 73 3.3 WNW 20 48 11 26 1008.2 1002.7 0.0
24/07:00am 24.1 24.9 19.0 73 3.3 WNW 13 22 7 12 1007.5 1002.1 0.0
24/06:30am 24.9 24.0 18.1 66 4.4 WNW 20 28 11 15 1007.5 1002.1 0.0
24/06:00am 25.5 23.9 17.4 61 5.2 WNW 22 30 12 16 1007.8 1002.3 0.0
24/05:30am 25.9 24.7 17.0 58 5.7 WNW 19 28 10 15 1007.2 1001.7 0.0
24/05:00am 26.5 25.9 16.7 55 6.2 NNW 15 22 8 12 1006.9 1001.4 0.0
24/04:30am 28.1 27.5 15.7 46 7.9 N 13 24 7 13 1006.8 1001.3 0.0
24/04:00am 26.6 28.0 17.9 59 5.6 N 7 9 4 5 1007.0 1001.5 0.0
24/03:30am 27.2 27.1 15.9 50 7.2 E 11 15 6 8 1006.8 1001.3 0.0
24/03:00am 28.0 26.3 14.6 44 8.3 ESE 17 22 9 12 1007.0 1001.5 0.0
24/02:30am 29.3 28.6 13.1 37 9.9 NE 9 13 5 7 1007.9 1002.4 0.0
24/02:00am 29.0 27.8 12.8 36 9.8 ENE 11 11 6 6 1008.0 1002.5 0.0
24/01:30am 28.6 28.4 12.9 38 9.5 ENE 6 11 3 6 1008.2 1002.7 0.0
24/01:00am 29.3 28.8 12.7 36 10.1 ESE 7 9 4 5 1008.4 1002.9 0.0
24/12:30am 29.6 29.4 12.9 35 10.2 SW 6 7 3 4 1008.6 1003.1 0.0
24/12:00am 30.5 29.3 12.9 34 10.8 WNW 11 17 6 9 1008.7 1003.2 0.0
 
Date/Time
CDT
Temp
°C
App
Temp
°C
Dew
Point
°C
Rel
Hum
%
Delta-T
°C
Wind Press
QNH
hPa
Press
MSL
hPa
Rain since
9am
mm
Dir  Spd
km/h
Gust
km/h
Spd
kts
Gust
kts
23/11:30pm 30.9 30.3 11.8 31 11.5 NE 6 7 3 4 1008.7 1003.2 0.0
23/11:00pm 31.3 29.5 12.2 31 11.6 ENE 13 20 7 11 1008.5 1003.0 0.0
23/10:30pm 31.9 29.2 11.7 29 12.2 N 17 28 9 15 1008.6 1003.1 0.0
23/10:00pm 31.1 29.9 11.5 30 11.7 NNE 9 15 5 8 1008.6 1003.1 0.0
23/09:30pm 31.5 29.1 11.3 29 12.1 N 15 20 8 11 1008.4 1002.9 0.0
23/09:00pm 31.5 29.3 10.8 28 12.3 NNE 13 19 7 10 1008.4 1002.9 0.0
23/08:30pm 31.7 28.6 10.4 27 12.6 NNE 17 26 9 14 1008.4 1002.9 0.0
23/08:00pm 32.1 27.2 11.3 28 12.5 NE 28 43 15 23 1008.2 1002.7 0.0
23/07:47pm 32.2 27.0 10.3 26 12.9 NE 28 44 15 24 1007.9 1002.4 0.0
23/07:30pm 30.7 27.7 12.1 32 11.3 NNE 19 24 10 13 1008.0 1002.5 0.0
23/07:00pm 30.2 26.5 12.6 34 10.7 NNE 24 33 13 18 1008.2 1002.7 0.0
23/06:30pm 30.5 27.7 14.2 37 10.2 N 22 32 12 17 1008.2 1002.7 0.0
23/06:00pm 31.8 28.4 12.6 31 11.8 NNW 22 33 12 18 1007.6 1002.2 0.0
23/05:30pm 32.0 28.1 13.2 31 11.6 NNW 26 39 14 21 1007.4 1001.9 0.0
23/05:00pm 32.9 27.6 13.0 30 12.3 NNW 33 54 18 29 1007.8 1002.3 0.0
23/04:37pm 34.6 30.6 11.7 25 14.0 N 24 50 13 27 1007.4 1001.9 0.0
23/04:30pm 36.4 32.4 8.3 18 16.4 NNE 19 30 10 16 1007.3 1001.8 0.0
23/04:00pm 35.8 32.3 8.6 19 15.9 NNE 17 24 9 13 1007.3 1001.8 0.0
23/03:30pm 35.4 28.9 9.0 20 15.5 NNE 33 52 18 28 1007.4 1001.9 0.0
23/03:25pm 36.3 31.1 7.4 17 16.6 NNE 24 50 13 27 1007.4 1001.9 0.0
23/03:00pm 37.7 33.1 6.6 15 17.8 N 20 35 11 19 1007.5 1002.1 0.0
23/02:30pm 36.7 32.0 5.9 15 17.4 NNE 20 28 11 15 1007.9 1002.4 0.0
23/02:00pm 36.9 31.8 4.0 13 18.0 NNE 20 37 11 20 1008.5 1003.0 0.0
23/01:30pm 37.3 30.7 1.9 11 18.9 NE 26 39 14 21 1008.7 1003.2 0.0
23/01:00pm 37.2 31.5 3.1 12 18.5 NNE 22 39 12 21 1009.0 1003.6 0.0
23/12:30pm 36.9 30.8 2.8 12 18.4 NE 24 39 13 21 1009.4 1003.9 0.0
23/12:00pm 35.9 29.5 3.2 13 17.6 NE 26 39 14 21 1009.7 1004.2 0.0
23/11:30am 35.6 29.7 4.0 14 17.2 NNE 24 35 13 19 1010.0 1004.5 0.0
23/11:00am 34.6 29.1 7.6 19 15.5 NNE 26 39 14 21 1010.0 1004.5 0.0
23/10:30am 34.7 28.3 5.2 16 16.3 NNE 28 35 15 19 1010.2 1004.8 0.0
23/10:00am 34.1 27.6 2.8 14 16.6 NE 26 41 14 22 1010.4 1005.0 0.0
23/09:30am 33.2 26.9 -3.9 9 17.6 ENE 20 26 11 14 1010.4 1005.0 0.0
23/09:00am 31.5 26.8 -5.2 9 16.8 E 11 13 6 7 1010.6 1005.2 0.0
23/08:30am 28.9 23.7 -5.7 10 15.4 E 13 15 7 8 1010.7 1005.3 0.0
23/08:00am 28.1 22.9 -6.3 10 15.0 E 13 17 7 9 1010.7 1005.3 0.0
23/07:30am 27.5 22.4 -5.6 11 14.6 E 13 15 7 8 1010.6 1005.2 0.0
23/07:00am 26.8 22.0 -6.1 11 14.2 E 11 13 6 7 1010.3 1004.9 0.0
23/06:30am 26.6 21.5 -5.1 12 14.0 E 13 15 7 8 1010.1 1004.6 0.0
23/06:00am 25.9 20.8 -5.6 12 13.7 ESE 13 13 7 7 1009.9 1004.4 0.0
23/05:30am 26.1 21.4 -5.5 12 13.8 E 11 13 6 7 1009.9 1004.4 0.0
23/05:00am 26.9 21.8 -4.9 12 14.1 E 13 15 7 8 1010.0 1004.5 0.0
23/04:30am 26.8 22.1 -4.9 12 14.1 E 11 13 6 7 1010.0 1004.5 0.0
23/04:00am 26.7 22.0 -5.0 12 14.0 E 11 13 6 7 1010.0 1004.5 0.0
23/03:30am 27.8 23.2 -4.2 12 14.5 E 11 13 6 7 1010.1 1004.6 0.0
23/03:00am 28.5 23.8 -4.8 11 15.0 E 11 13 6 7 1010.2 1004.8 0.0
23/02:30am 29.1 24.1 -4.3 11 15.2 E 13 15 7 8 1010.5 1005.1 0.0
23/02:00am 29.9 24.6 -3.7 11 15.6 E 15 17 8 9 1010.9 1005.4 0.0
23/01:30am 30.3 25.3 -4.7 10 16.0 E 13 19 7 10 1011.1 1005.6 0.0
23/01:00am 30.8 25.4 -4.3 10 16.2 ENE 15 24 8 13 1011.1 1005.6 0.0
23/12:30am 29.9 24.6 -3.7 11 15.6 ENE 15 15 8 8 1011.1 1005.6 0.0
23/12:00am 30.0 25.1 -3.6 11 15.6 ENE 13 15 7 8 1011.0 1005.5 0.0
 
Date/Time
CDT
Temp
°C
App
Temp
°C
Dew
Point
°C
Rel
Hum
%
Delta-T
°C
Wind Press
QNH
hPa
Press
MSL
hPa
Rain since
9am
mm
Dir  Spd
km/h
Gust
km/h
Spd
kts
Gust
kts
22/11:30pm 31.3 26.3 -3.9 10 16.4 ENE 13 17 7 9 1010.9 1005.4 0.0
22/11:00pm 32.9 26.6 -4.1 9 17.4 ENE 20 28 11 15 1010.6 1005.2 0.0
22/10:30pm 33.7 27.3 -5.1 8 18.1 E 20 28 11 15 1010.3 1004.9 0.0
22/10:00pm 34.1 27.9 -4.8 8 18.2 E 19 26 10 14 1010.3 1004.9 0.0
22/09:30pm 34.5 27.8 -4.5 8 18.5 E 22 28 12 15 1010.2 1004.8 0.0
22/09:00pm 34.7 28.5 -4.4 8 18.6 E 19 26 10 14 1010.1 1004.6 0.0
22/08:30pm 35.2 29.1 -4.0 8 18.8 ESE 19 24 10 13 1009.8 1004.3 0.0
22/08:00pm 35.7 29.3 -5.4 7 19.3 E 20 28 11 15 1009.7 1004.2 0.0
22/07:30pm 36.4 30.2 -4.9 7 19.7 E 19 30 10 16 1009.5 1004.0 0.0
22/07:00pm 37.3 31.5 -4.2 7 20.1 ESE 17 26 9 14 1009.4 1003.9 0.0
22/06:30pm 37.9 31.4 -5.8 6 20.8 E 20 33 11 18 1009.5 1004.0 0.0
22/06:00pm 37.3 31.7 -6.3 6 20.5 ESE 15 30 8 16 1009.8 1004.3 0.0
22/05:30pm 37.5 31.6 -6.1 6 20.6 E 17 24 9 13 1009.9 1004.4 0.0
22/05:00pm 37.7 32.1 -6.0 6 20.6 ENE 15 26 8 14 1010.0 1004.5 0.0
22/04:30pm 38.4 32.5 -5.5 6 21.0 ESE 17 32 9 17 1010.3 1004.9 0.0
22/04:00pm 37.6 31.1 -6.0 6 20.6 ENE 20 32 11 17 1010.7 1005.3 0.0
22/03:30pm 37.5 31.2 -6.1 6 20.5 ESE 19 30 10 16 1010.9 1005.4 0.0
22/03:00pm 38.5 32.8 -7.8 5 21.4 E 15 35 8 19 1011.4 1005.9 0.0
22/02:30pm 37.8 31.9 -5.9 6 20.7 N 17 30 9 16 1011.7 1006.3 0.0
22/02:00pm 36.7 32.2 -6.7 6 20.1 NW 9 15 5 8 1012.2 1006.8 0.0
22/01:30pm 37.3 31.0 -6.3 6 20.4 NE 19 28 10 15 1012.7 1007.2 0.0
22/01:00pm 37.0 30.4 -6.5 6 20.3 NE 20 30 11 16 1013.2 1007.8 0.0
22/12:30pm 37.3 31.0 -6.3 6 20.4 NE 19 37 10 20 1013.5 1008.1 0.0
22/12:00pm 36.0 29.9 -7.2 6 19.8 NNE 17 32 9 17 1014.1 1008.7 0.0
22/11:30am 36.2 30.2 -7.0 6 19.9 NNE 17 24 9 13 1014.2 1008.8 0.0
22/11:00am 34.1 27.4 -8.5 6 18.8 NNE 20 32 11 17 1014.3 1008.9 0.0
22/10:30am 33.6 27.0 -6.9 7 18.3 NNE 20 28 11 15 1014.4 1009.0 0.0
22/10:00am 32.6 25.9 -7.6 7 17.8 NE 20 28 11 15 1014.4 1009.0 0.0
22/09:30am 32.0 25.3 -8.1 7 17.5 NE 20 32 11 17 1014.5 1009.1 0.0
22/09:00am 30.6 24.4 -9.1 7 16.9 NE 17 20 9 11 1014.4 1009.0 0.0
22/08:30am 29.2 24.3 -6.9 9 15.7 ENE 11 13 6 7 1014.2 1008.8 0.0
22/08:00am 26.8 22.4 -6.1 11 14.2 E 9 9 5 5 1013.7 1008.3 0.0
22/07:30am 25.1 20.7 -6.3 12 13.3 E 9 11 5 6 1013.4 1008.0 0.0
22/07:00am 25.0 20.7 -5.3 13 13.1 E 9 11 5 6 1013.2 1007.8 0.0
22/06:30am 25.4 20.4 -4.0 14 13.1 E 13 15 7 8 1012.8 1007.4 0.0
22/06:00am 26.2 21.6 -4.4 13 13.6 E 11 13 6 7 1012.6 1007.1 0.0
22/05:30am 26.8 21.8 -3.9 13 13.8 E 13 15 7 8 1012.1 1006.7 0.0
22/05:00am 27.2 22.3 -3.6 13 14.0 E 13 13 7 7 1011.9 1006.5 0.0
22/04:30am 26.4 21.9 -3.2 14 13.5 E 11 13 6 7 1012.1 1006.7 0.0
22/04:00am 26.9 22.0 -3.8 13 13.9 E 13 15 7 8 1011.9 1006.5 0.0
22/03:30am 25.7 21.6 -2.8 15 13.0 E 9 13 5 7 1012.0 1006.6 0.0
22/03:00am 27.5 23.0 -3.3 13 14.1 E 11 13 6 7 1012.0 1006.6 0.0
22/02:30am 27.6 23.1 -3.3 13 14.2 ESE 11 13 6 7 1012.1 1006.7 0.0
22/02:00am 26.6 22.9 -3.1 14 13.6 E 7 9 4 5 1012.4 1006.9 0.0
22/01:30am 27.0 22.4 -3.7 13 13.9 E 11 13 6 7 1012.4 1006.9 0.0
22/01:00am 27.3 23.3 -2.5 14 13.8 E 9 11 5 6 1012.5 1007.0 0.0
22/12:30am 28.0 23.8 -4.0 12 14.5 E 9 11 5 6 1012.5 1007.0 0.0
22/12:00am 28.0 23.8 -4.0 12 14.5 NE 9 11 5 6 1012.4 1006.9 0.0
 
Date/Time
CDT
Temp
°C
App
Temp
°C
Dew
Point
°C
Rel
Hum
%
Delta-T
°C
Wind Press
QNH
hPa
Press
MSL
hPa
Rain since
9am
mm
Dir  Spd
km/h
Gust
km/h
Spd
kts
Gust
kts
21/11:30pm 28.5 24.0 -3.6 12 14.7 E 11 13 6 7 1012.1 1006.7 0.0
21/11:00pm 29.0 24.7 -4.4 11 15.2 ENE 9 13 5 7 1012.2 1006.8 0.0
21/10:30pm 29.7 25.5 -3.9 11 15.5 ENE 9 11 5 6 1012.1 1006.7 0.0
21/10:00pm 30.6 26.3 -4.4 10 16.1 E 9 13 5 7 1012.1 1006.7 0.0
21/09:30pm 31.6 26.9 -5.1 9 16.8 E 11 13 6 7 1012.1 1006.7 0.0
21/09:00pm 32.6 27.2 -4.3 9 17.3 ENE 15 17 8 9 1012.0 1006.6 0.0

Other formats

Comma delimited format used in spreadsheet applications
http://www.bom.gov.au/fwo/IDS60801/IDS60801.94474.axf

JavaScript Object Notation format (JSON) in row-major order
http://www.bom.gov.au/fwo/IDS60801/IDS60801.94474.json

Data quality

Most of these data are generated automatically and are frequently updated. Quality checks on data are not normally performed. It is possible for incorrect values to appear. Refer to information at About Latest Weather Observations and please check the disclaimer before using these data.